CheckWX is a tool to help pilots better visualize weather data.  It is not intended as a substitute for an official pre-flight weather briefing.

17:51:37 UTC

KECG METAR
Elizabeth City CG Air Station / Rgnl Airport
Elizabeth City, North Carolina, USA
Current

58 mins ago

KECG 211654Z 23014G20KT 10SM CLR 34/24 A2995 RMK AO2 SLP142 T03440239
Observed
Jul-21 @ 16:54 UTC
Wind
  • 230° at 14 KTS
  • Gusting to 20 KTS
Visibility
10 SM
Flight Rules
VFR
Cloud Levels
  • Clear skies
Temperature
34°C / 93°F
Dewpoint
24°C / 75°F
Heat Index
41°C / 105°F
Humidity
56%
Altimeter
29.95" Hg
Pressure
1014.22 hPa
Previous

2 hours ago

KECG 211554Z 24013G20KT 10SM CLR 33/24 A2995 RMK AO2 SLP141 T03330239
Observed
Jul-21 @ 15:54 UTC
Wind
  • 240° at 13 KTS
  • Gusting to 20 KTS
Visibility
10 SM
Flight Rules
VFR
Cloud Levels
  • Clear skies
Temperature
33°C / 91°F
Dewpoint
24°C / 75°F
Heat Index
39°C / 102°F
Humidity
59%
Altimeter
29.95" Hg
Pressure
1014.22 hPa
Previous

3 hours ago

KECG 211454Z 24011KT 10SM CLR 33/25 A2995 RMK AO2 SLP142 T03280250 51004
Observed
Jul-21 @ 14:54 UTC
Wind
  • 240° at 11 KTS
Visibility
10 SM
Flight Rules
VFR
Cloud Levels
  • Clear skies
Temperature
33°C / 91°F
Dewpoint
25°C / 77°F
Heat Index
40°C / 104°F
Humidity
63%
Altimeter
29.95" Hg
Pressure
1014.22 hPa